createdAt,value
2019-03-27T00:02:18.704Z,4.73
2019-03-27T00:04:47.169Z,4.50
2019-03-27T00:07:15.651Z,4.40
2019-03-27T00:09:44.113Z,4.30
2019-03-27T00:12:12.606Z,4.47
2019-03-27T00:14:41.070Z,4.13
2019-03-27T00:17:09.549Z,4.13
2019-03-27T00:19:38.012Z,4.37
2019-03-27T00:22:06.566Z,4.47
2019-03-27T00:24:35.024Z,5.27
2019-03-27T00:27:03.516Z,4.73
2019-03-27T00:29:31.985Z,5.03
2019-03-27T00:32:00.469Z,5.60
2019-03-27T00:34:29.002Z,6.27
2019-03-27T00:36:57.493Z,6.37
2019-03-27T00:39:25.961Z,7.17
2019-03-27T00:41:54.443Z,7.60
2019-03-27T00:44:22.913Z,7.43
2019-03-27T00:46:51.404Z,7.57
2019-03-27T00:49:19.875Z,7.33
2019-03-27T00:51:48.369Z,6.57
2019-03-27T00:54:16.836Z,7.30
2019-03-27T00:56:45.336Z,8.13
2019-03-27T00:59:13.866Z,8.10
2019-03-27T01:01:42.353Z,8.43
2019-03-27T01:04:10.819Z,8.27
2019-03-27T01:06:39.309Z,8.53
2019-03-27T01:09:07.772Z,9.57
2019-03-27T01:11:36.270Z,10.13
2019-03-27T01:14:04.804Z,8.37
2019-03-27T01:16:33.300Z,8.90
2019-03-27T01:19:01.760Z,9.13
2019-03-27T01:21:30.251Z,9.10
2019-03-27T01:23:58.716Z,8.93
2019-03-27T01:26:27.246Z,8.43
2019-03-27T01:28:55.670Z,9.27
2019-03-27T01:31:24.167Z,8.20
2019-03-27T01:33:52.642Z,8.60
2019-03-27T01:36:21.130Z,8.33
2019-03-27T01:38:49.596Z,8.13
2019-03-27T01:41:18.088Z,8.80
2019-03-27T01:43:46.555Z,9.17
2019-03-27T01:46:15.050Z,9.30
2019-03-27T01:48:43.520Z,9.60
2019-03-27T01:51:12.010Z,9.97
2019-03-27T01:53:40.482Z,10.07
2019-03-27T01:56:08.976Z,10.90
2019-03-27T01:58:37.450Z,10.17
2019-03-27T02:01:05.981Z,11.00
2019-03-27T02:03:34.478Z,10.97
2019-03-27T02:06:02.954Z,12.23
2019-03-27T02:08:31.923Z,11.70
2019-03-27T02:11:00.394Z,11.50
2019-03-27T02:13:28.885Z,12.10
2019-03-27T02:16:06.803Z,12.40
2019-03-27T02:18:27.575Z,11.70
2019-03-27T02:20:56.040Z,11.13
2019-03-27T02:23:24.538Z,11.57
2019-03-27T02:25:53.003Z,11.63
2019-03-27T02:28:21.500Z,11.80
2019-03-27T02:30:49.970Z,12.00
2019-03-27T02:33:18.468Z,13.10
2019-03-27T02:35:46.945Z,12.80
2019-03-27T02:38:15.443Z,12.17
2019-03-27T02:40:43.913Z,11.60
2019-03-27T02:43:12.414Z,12.07
2019-03-27T02:45:40.895Z,11.93
2019-03-27T02:48:09.399Z,11.97
2019-03-27T02:50:37.865Z,12.23
2019-03-27T02:53:06.367Z,12.13
2019-03-27T02:55:34.840Z,13.00
2019-03-27T02:58:03.342Z,12.53
2019-03-27T03:00:32.090Z,13.20
2019-03-27T03:03:00.593Z,12.07
2019-03-27T03:05:29.058Z,11.77
2019-03-27T03:07:57.557Z,11.07
2019-03-27T03:10:26.038Z,12.40
2019-03-27T03:12:54.536Z,12.67
2019-03-27T03:15:27.476Z,13.07
2019-03-27T03:17:55.982Z,12.97
2019-03-27T03:20:24.445Z,12.73
2019-03-27T03:22:52.948Z,12.50
2019-03-27T03:25:21.426Z,12.20
2019-03-27T03:27:49.921Z,12.97
2019-03-27T03:30:18.463Z,12.50
2019-03-27T03:32:46.959Z,11.50
2019-03-27T03:35:15.565Z,12.90
2019-03-27T03:37:44.057Z,12.73
2019-03-27T03:40:13.870Z,12.30
2019-03-27T03:42:42.364Z,11.53
2019-03-27T03:45:11.437Z,12.17
2019-03-27T03:47:39.947Z,11.77
2019-03-27T03:50:10.305Z,11.77
2019-03-27T03:52:39.066Z,11.57
2019-03-27T03:55:07.672Z,10.97
2019-03-27T03:57:37.453Z,11.50
2019-03-27T04:00:07.956Z,11.13
2019-03-27T04:02:37.521Z,10.93
2019-03-27T04:05:07.336Z,10.40
2019-03-27T04:07:35.830Z,11.23
2019-03-27T04:10:05.342Z,10.60
2019-03-27T04:12:33.834Z,10.60
2019-03-27T04:15:02.326Z,10.63
2019-03-27T04:17:30.820Z,10.67
2019-03-27T04:19:59.308Z,10.90
2019-03-27T04:22:27.790Z,10.60
2019-03-27T04:24:56.261Z,10.97
2019-03-27T04:27:24.759Z,11.07
2019-03-27T04:29:53.214Z,9.40
2019-03-27T04:32:21.729Z,9.70
2019-03-27T04:34:50.187Z,10.43
2019-03-27T04:37:18.654Z,10.27
2019-03-27T04:39:47.173Z,10.60
2019-03-27T04:42:15.617Z,10.87
2019-03-27T04:44:44.116Z,11.23
2019-03-27T04:47:12.599Z,11.40
2019-03-27T04:49:41.083Z,12.23
2019-03-27T04:52:09.553Z,10.90
2019-03-27T04:54:38.055Z,12.93
2019-03-27T04:57:06.518Z,11.73
2019-03-27T04:59:35.024Z,11.90
2019-03-27T05:02:06.493Z,13.47
2019-03-27T05:04:33.729Z,12.70
2019-03-27T05:07:02.207Z,12.93
2019-03-27T05:09:30.704Z,13.23
2019-03-27T05:11:59.448Z,12.63
2019-03-27T05:14:27.948Z,11.70
2019-03-27T05:16:56.495Z,11.90
2019-03-27T05:19:24.988Z,11.33
2019-03-27T05:21:53.466Z,12.43
2019-03-27T05:24:21.959Z,11.90
2019-03-27T05:26:50.434Z,11.80
2019-03-27T05:29:18.952Z,12.67
2019-03-27T05:31:47.425Z,12.40
2019-03-27T05:34:15.934Z,12.43
2019-03-27T05:36:44.429Z,11.57
2019-03-27T05:39:14.544Z,12.30
2019-03-27T05:41:43.287Z,11.57
2019-03-27T05:44:11.778Z,11.63
2019-03-27T05:46:40.251Z,13.10
2019-03-27T05:49:08.751Z,12.97
2019-03-27T05:51:37.233Z,13.53
2019-03-27T05:54:05.726Z,13.67
2019-03-27T05:56:34.208Z,12.70
2019-03-27T05:59:02.706Z,12.77
2019-03-27T06:01:31.180Z,12.07
2019-03-27T06:03:59.694Z,12.13
2019-03-27T06:06:28.174Z,11.20
2019-03-27T06:08:56.675Z,10.00
2019-03-27T06:11:25.154Z,12.50
2019-03-27T06:13:53.658Z,11.90
2019-03-27T06:16:22.129Z,12.13
2019-03-27T06:18:50.636Z,11.23
2019-03-27T06:21:19.116Z,10.17
2019-03-27T06:23:47.615Z,10.37
2019-03-27T06:26:16.084Z,9.83
2019-03-27T06:28:44.578Z,9.57
2019-03-27T06:31:13.050Z,9.37
2019-03-27T06:33:41.551Z,10.00
2019-03-27T06:36:10.094Z,9.00
2019-03-27T06:38:38.591Z,10.80
2019-03-27T06:41:07.288Z,9.87
2019-03-27T06:43:35.782Z,10.03
2019-03-27T06:46:04.335Z,9.43
2019-03-27T06:48:32.830Z,10.77
2019-03-27T06:51:01.303Z,10.70
2019-03-27T06:53:29.806Z,14.97
2019-03-27T06:55:58.275Z,10.33
2019-03-27T06:58:26.747Z,9.60
2019-03-27T07:00:55.253Z,10.13
2019-03-27T07:03:23.731Z,10.47
2019-03-27T07:05:52.224Z,10.47
2019-03-27T07:08:20.698Z,10.93
2019-03-27T07:10:49.194Z,11.23
2019-03-27T07:13:17.674Z,10.80
2019-03-27T07:15:46.213Z,10.83
2019-03-27T07:18:14.675Z,10.10
2019-03-27T07:20:43.176Z,10.13
2019-03-27T07:23:11.656Z,10.43
2019-03-27T07:25:40.158Z,10.87
2019-03-27T07:28:08.611Z,9.80
2019-03-27T07:30:37.115Z,10.17
2019-03-27T07:33:05.595Z,10.83
2019-03-27T07:35:34.087Z,10.30
2019-03-27T07:38:02.562Z,10.00
2019-03-27T07:40:31.050Z,10.53
2019-03-27T07:42:59.518Z,10.03
2019-03-27T07:45:28.029Z,10.73
2019-03-27T07:47:56.502Z,10.53
2019-03-27T07:50:25.001Z,11.17
2019-03-27T07:52:53.467Z,9.40
2019-03-27T07:55:21.967Z,9.03
2019-03-27T07:57:50.424Z,9.63
2019-03-27T08:00:21.929Z,8.57
2019-03-27T08:02:50.489Z,8.63
2019-03-27T08:05:18.981Z,8.13
2019-03-27T08:07:47.444Z,8.83
2019-03-27T08:10:16.074Z,8.23
2019-03-27T08:12:44.545Z,8.87
2019-03-27T08:15:13.592Z,7.97
2019-03-27T08:17:42.119Z,8.43
2019-03-27T08:20:11.266Z,7.90
2019-03-27T08:22:39.734Z,7.63
2019-03-27T08:25:09.171Z,8.67
2019-03-27T08:27:37.641Z,8.90
2019-03-27T08:30:09.176Z,8.47
2019-03-27T08:32:37.718Z,7.87
2019-03-27T08:35:08.056Z,8.10
2019-03-27T08:37:36.680Z,7.83
2019-03-27T08:40:07.484Z,9.83
2019-03-27T08:42:36.863Z,8.13
2019-03-27T08:45:08.800Z,8.30
2019-03-27T08:47:37.268Z,7.83
2019-03-27T08:50:06.598Z,8.53
2019-03-27T08:52:35.060Z,8.13
2019-03-27T08:55:05.085Z,8.10
2019-03-27T08:57:33.552Z,8.07
2019-03-27T09:00:02.832Z,8.67
2019-03-27T09:02:31.432Z,8.47
2019-03-27T09:04:59.925Z,8.17
2019-03-27T09:07:28.404Z,8.63
2019-03-27T09:09:56.898Z,8.57
2019-03-27T09:12:25.360Z,9.40
2019-03-27T09:14:53.854Z,9.23
2019-03-27T09:17:22.322Z,9.10
2019-03-27T09:19:50.813Z,8.63
2019-03-27T09:22:19.276Z,8.53
2019-03-27T09:24:47.774Z,8.60
2019-03-27T09:27:16.244Z,8.90
2019-03-27T09:29:44.740Z,8.07
2019-03-27T09:32:13.216Z,9.10
2019-03-27T09:34:41.704Z,9.57
2019-03-27T09:37:10.181Z,9.83
2019-03-27T09:39:38.638Z,9.10
2019-03-27T09:42:07.141Z,11.07
2019-03-27T09:44:35.614Z,9.83
2019-03-27T09:47:04.106Z,8.10
2019-03-27T09:49:32.576Z,9.27
2019-03-27T09:52:01.070Z,8.60
2019-03-27T09:54:29.540Z,9.40
2019-03-27T09:56:58.031Z,9.90
2019-03-27T09:59:26.506Z,10.13
2019-03-27T10:01:55.016Z,9.63
2019-03-27T10:04:23.481Z,8.60
2019-03-27T10:06:51.971Z,8.73
2019-03-27T10:09:20.442Z,9.00
2019-03-27T10:11:48.936Z,8.63
2019-03-27T10:14:17.402Z,8.63
2019-03-27T10:16:45.894Z,7.67
2019-03-27T10:19:14.368Z,7.83
2019-03-27T10:21:42.859Z,7.40
2019-03-27T10:24:11.331Z,7.60
2019-03-27T10:26:42.508Z,7.17
2019-03-27T10:29:10.020Z,7.10
2019-03-27T10:31:39.651Z,7.13
2019-03-27T10:34:08.124Z,10.87
2019-03-27T10:36:36.630Z,8.33
2019-03-27T10:39:07.384Z,8.20
2019-03-27T10:41:35.881Z,7.73
2019-03-27T10:44:04.424Z,7.27
2019-03-27T10:46:32.923Z,7.20
2019-03-27T10:49:01.384Z,6.87
2019-03-27T10:51:29.882Z,10.40
2019-03-27T10:53:58.350Z,6.33
2019-03-27T10:56:26.847Z,6.87
2019-03-27T10:58:55.322Z,6.37
2019-03-27T11:01:23.807Z,5.93
2019-03-27T11:03:52.283Z,8.40
2019-03-27T11:06:20.769Z,6.23
2019-03-27T11:08:49.235Z,5.70
2019-03-27T11:11:17.736Z,15.43
2019-03-27T11:13:46.202Z,5.43
2019-03-27T11:16:14.695Z,8.80
2019-03-27T11:18:43.167Z,10.30
2019-03-27T11:21:11.660Z,7.47
2019-03-27T11:23:40.131Z,16.77
2019-03-27T11:26:08.639Z,17.30
2019-03-27T11:28:37.095Z,6.23
2019-03-27T11:31:05.667Z,5.87
2019-03-27T11:33:34.195Z,17.67
2019-03-27T11:36:02.665Z,10.90
2019-03-27T11:38:31.123Z,5.03
2019-03-27T11:40:59.629Z,33.93
2019-03-27T11:43:28.099Z,5.27
2019-03-27T11:45:56.592Z,5.17
2019-03-27T11:48:25.066Z,5.17
2019-03-27T11:50:53.561Z,4.40
2019-03-27T11:53:22.030Z,4.70
2019-03-27T11:55:50.527Z,4.47
2019-03-27T11:58:18.998Z,4.63
2019-03-27T12:00:54.492Z,4.80
2019-03-27T12:03:17.685Z,5.00
2019-03-27T12:05:46.157Z,6.00
2019-03-27T12:08:14.650Z,5.40
2019-03-27T12:10:43.133Z,6.10
2019-03-27T12:13:11.637Z,6.50
2019-03-27T12:15:41.741Z,6.17
2019-03-27T12:18:11.486Z,5.70
2019-03-27T12:20:40.130Z,6.30
2019-03-27T12:23:08.692Z,5.70
2019-03-27T12:25:37.258Z,6.00
2019-03-27T12:28:05.900Z,6.47
2019-03-27T12:30:34.436Z,6.00
2019-03-27T12:33:04.596Z,6.17
2019-03-27T12:35:33.075Z,6.10
2019-03-27T12:38:04.262Z,5.70
2019-03-27T12:40:31.792Z,5.70
2019-03-27T12:43:00.266Z,4.80
2019-03-27T12:45:28.805Z,5.13
2019-03-27T12:47:57.323Z,5.37
2019-03-27T12:50:25.807Z,4.60
2019-03-27T12:52:54.299Z,5.20
2019-03-27T12:55:22.780Z,5.80
2019-03-27T12:57:51.282Z,5.10
2019-03-27T13:00:19.976Z,4.67
2019-03-27T13:02:48.538Z,6.13
2019-03-27T13:05:17.011Z,4.73
2019-03-27T13:07:50.165Z,5.27
2019-03-27T13:10:15.776Z,5.70
2019-03-27T13:12:44.334Z,5.50
2019-03-27T13:15:12.945Z,6.43
2019-03-27T13:17:42.304Z,6.57
2019-03-27T13:20:11.527Z,8.13
2019-03-27T13:22:40.005Z,5.53
2019-03-27T13:25:09.425Z,5.47
2019-03-27T13:27:38.349Z,6.50
2019-03-27T13:30:08.467Z,6.00
2019-03-27T13:32:36.962Z,8.33
2019-03-27T13:35:07.078Z,11.13
2019-03-27T13:37:35.637Z,6.70
2019-03-27T13:40:08.357Z,5.47
2019-03-27T13:42:36.855Z,6.97
2019-03-27T13:45:06.827Z,9.37
2019-03-27T13:47:35.593Z,10.43
2019-03-27T13:50:06.782Z,17.00
2019-03-27T13:52:35.278Z,7.33
2019-03-27T13:55:04.787Z,6.63
2019-03-27T13:57:33.294Z,10.37
2019-03-27T14:00:01.760Z,7.13
2019-03-27T14:02:30.261Z,8.37
2019-03-27T14:04:58.759Z,8.83
2019-03-27T14:07:27.250Z,5.60
2019-03-27T14:09:55.727Z,6.50
2019-03-27T14:12:24.221Z,6.30
2019-03-27T14:14:52.703Z,6.03
2019-03-27T14:17:21.197Z,5.90
2019-03-27T14:19:49.674Z,5.30
2019-03-27T14:22:18.245Z,6.50
2019-03-27T14:24:46.717Z,5.80
2019-03-27T14:27:15.220Z,5.77
2019-03-27T14:29:44.889Z,5.50
2019-03-27T14:32:13.773Z,5.73
2019-03-27T14:34:42.417Z,5.33
2019-03-27T14:37:11.008Z,5.80
2019-03-27T14:39:39.471Z,5.83
2019-03-27T14:42:08.039Z,5.63
2019-03-27T14:44:36.588Z,5.67
2019-03-27T14:47:05.129Z,7.80
2019-03-27T14:49:33.625Z,5.70
2019-03-27T14:52:08.277Z,5.90
2019-03-27T14:54:32.336Z,6.33
2019-03-27T14:57:00.802Z,6.60
2019-03-27T14:59:29.397Z,5.47
2019-03-27T15:01:57.868Z,6.67
2019-03-27T15:04:26.360Z,5.57
2019-03-27T15:06:55.033Z,5.93
2019-03-27T15:09:23.696Z,6.13
2019-03-27T15:11:52.185Z,24.97
2019-03-27T15:14:20.678Z,8.43
2019-03-27T15:16:49.148Z,7.37
2019-03-27T15:19:17.643Z,8.90
2019-03-27T15:21:46.117Z,8.47
2019-03-27T15:24:14.616Z,14.23
2019-03-27T15:26:43.088Z,9.50
2019-03-27T15:29:11.579Z,7.67
2019-03-27T15:31:40.058Z,7.43
2019-03-27T15:34:08.550Z,7.50
2019-03-27T15:36:37.024Z,9.00
2019-03-27T15:39:07.062Z,8.23
2019-03-27T15:41:35.534Z,8.70
2019-03-27T15:44:04.037Z,8.40
2019-03-27T15:46:32.574Z,7.53
2019-03-27T15:49:01.060Z,7.73
2019-03-27T15:51:29.539Z,7.70
2019-03-27T15:53:58.125Z,8.10
2019-03-27T15:56:26.602Z,8.07
2019-03-27T15:58:56.348Z,8.30
2019-03-27T16:01:24.955Z,7.50
2019-03-27T16:03:53.450Z,7.93
2019-03-27T16:06:22.048Z,8.27
2019-03-27T16:08:50.555Z,8.93
2019-03-27T16:11:19.122Z,8.07
2019-03-27T16:13:47.616Z,8.23
2019-03-27T16:16:16.155Z,8.13
2019-03-27T16:18:44.717Z,8.47
2019-03-27T16:21:13.190Z,8.33
2019-03-27T16:23:41.690Z,8.17
2019-03-27T16:26:10.158Z,8.10
2019-03-27T16:28:38.658Z,8.23
2019-03-27T16:31:07.127Z,9.27
2019-03-27T16:33:35.628Z,9.07
2019-03-27T16:36:04.104Z,10.37
2019-03-27T16:38:32.607Z,10.10
2019-03-27T16:41:01.087Z,10.00
2019-03-27T16:43:29.589Z,11.50
2019-03-27T16:45:58.058Z,9.43
2019-03-27T16:48:26.548Z,11.10
2019-03-27T16:50:55.024Z,14.47
2019-03-27T16:53:23.524Z,10.17
2019-03-27T16:55:52.143Z,12.97
2019-03-27T16:58:20.646Z,10.83
2019-03-27T17:00:49.120Z,10.23
2019-03-27T17:03:17.690Z,10.27
2019-03-27T17:05:53.927Z,10.43
2019-03-27T17:08:16.544Z,11.13
2019-03-27T17:10:45.083Z,11.43
2019-03-27T17:13:13.566Z,10.93
2019-03-27T17:15:42.067Z,16.80
2019-03-27T17:18:10.551Z,10.80
2019-03-27T17:20:39.140Z,28.07
2019-03-27T17:23:18.173Z,12.80
2019-03-27T17:25:38.102Z,11.03
2019-03-27T17:28:06.625Z,18.90
2019-03-27T17:30:35.201Z,11.43
2019-03-27T17:33:05.401Z,13.87
2019-03-27T17:35:33.924Z,11.83
2019-03-27T17:38:02.466Z,12.33
2019-03-27T17:40:31.065Z,12.70
2019-03-27T17:42:59.629Z,13.53
2019-03-27T17:45:28.136Z,11.33
2019-03-27T17:47:56.628Z,20.43
2019-03-27T17:50:25.128Z,12.60
2019-03-27T17:52:53.605Z,11.77
2019-03-27T17:55:22.124Z,12.30
2019-03-27T17:57:50.642Z,12.63
2019-03-27T18:00:23.845Z,13.80
2019-03-27T18:02:52.324Z,12.67
2019-03-27T18:05:20.835Z,12.83
2019-03-27T18:07:49.322Z,12.57
2019-03-27T18:10:17.840Z,14.20
2019-03-27T18:12:46.317Z,13.57
2019-03-27T18:15:14.985Z,15.40
2019-03-27T18:17:43.453Z,12.83
2019-03-27T18:20:12.203Z,14.23
2019-03-27T18:22:40.856Z,14.80
2019-03-27T18:25:09.710Z,15.00
2019-03-27T18:27:38.341Z,14.73
2019-03-27T18:30:08.084Z,16.57
2019-03-27T18:32:36.792Z,15.40
2019-03-27T18:35:08.012Z,13.33
2019-03-27T18:37:36.597Z,18.83
2019-03-27T18:40:07.029Z,15.40
2019-03-27T18:42:35.509Z,15.27
2019-03-27T18:45:06.180Z,18.17
2019-03-27T18:47:36.425Z,13.67
2019-03-27T18:50:09.288Z,14.63
2019-03-27T18:52:37.762Z,23.33
2019-03-27T18:55:07.890Z,17.50
2019-03-27T18:57:36.368Z,18.97
2019-03-27T19:00:07.174Z,19.50
2019-03-27T19:02:35.722Z,14.87
2019-03-27T19:05:08.451Z,19.17
2019-03-27T19:07:36.919Z,13.00
2019-03-27T19:10:06.939Z,16.00
2019-03-27T19:12:35.419Z,20.00
2019-03-27T19:15:06.273Z,15.60
2019-03-27T19:17:34.755Z,14.43
2019-03-27T19:20:04.664Z,16.40
2019-03-27T19:22:33.120Z,15.47
2019-03-27T19:25:01.633Z,18.00
2019-03-27T19:27:30.122Z,16.17
2019-03-27T19:29:58.697Z,15.90
2019-03-27T19:32:27.274Z,16.47
2019-03-27T19:34:55.780Z,19.20
2019-03-27T19:37:24.248Z,20.33
2019-03-27T19:39:52.766Z,19.33
2019-03-27T19:42:21.245Z,16.93
2019-03-27T19:44:51.397Z,15.13
2019-03-27T19:47:19.883Z,14.60
2019-03-27T19:49:48.387Z,14.33
2019-03-27T19:52:16.867Z,14.87
2019-03-27T19:54:45.400Z,15.10
2019-03-27T19:57:13.910Z,14.30
2019-03-27T19:59:42.403Z,15.17
2019-03-27T20:02:11.615Z,15.47
2019-03-27T20:04:40.266Z,13.93
2019-03-27T20:07:08.802Z,15.90
2019-03-27T20:09:37.310Z,15.43
2019-03-27T20:12:05.803Z,15.10
2019-03-27T20:14:34.293Z,15.80
2019-03-27T20:17:02.806Z,15.37
2019-03-27T20:19:31.695Z,16.00
2019-03-27T20:22:00.207Z,16.97
2019-03-27T20:24:40.522Z,14.93
2019-03-27T20:27:00.561Z,15.20
2019-03-27T20:29:29.098Z,16.27
2019-03-27T20:31:57.623Z,16.80
2019-03-27T20:34:26.121Z,16.07
2019-03-27T20:36:54.625Z,16.07
2019-03-27T20:39:23.187Z,15.27
2019-03-27T20:41:51.728Z,15.23
2019-03-27T20:44:20.220Z,17.13
2019-03-27T20:46:48.739Z,15.57
2019-03-27T20:49:17.225Z,16.40
2019-03-27T20:51:45.731Z,15.97
2019-03-27T20:54:14.339Z,16.73
2019-03-27T20:56:42.875Z,15.40
2019-03-27T20:59:11.838Z,16.93
2019-03-27T21:01:40.341Z,14.87
2019-03-27T21:04:08.929Z,16.30
2019-03-27T21:06:37.441Z,18.27
2019-03-27T21:09:06.412Z,17.30
2019-03-27T21:11:34.963Z,17.73
2019-03-27T21:14:03.489Z,16.50
2019-03-27T21:16:34.504Z,17.43
2019-03-27T21:19:03.070Z,18.93
2019-03-27T21:21:31.595Z,19.87
2019-03-27T21:24:00.072Z,16.87
2019-03-27T21:26:28.614Z,17.60
2019-03-27T21:28:57.140Z,16.50
2019-03-27T21:31:25.656Z,18.50
2019-03-27T21:33:57.526Z,17.47
2019-03-27T21:36:24.455Z,18.03
2019-03-27T21:38:54.373Z,18.33
2019-03-27T21:41:22.888Z,17.53
2019-03-27T21:43:52.137Z,17.03
2019-03-27T21:46:20.639Z,18.87
2019-03-27T21:48:49.125Z,18.63
2019-03-27T21:51:17.628Z,19.80
2019-03-27T21:53:50.632Z,16.90
2019-03-27T21:56:16.346Z,18.20
2019-03-27T21:58:44.833Z,18.10
2019-03-27T22:01:13.341Z,20.17
2019-03-27T22:03:41.815Z,19.97
2019-03-27T22:06:10.457Z,19.50
2019-03-27T22:08:38.940Z,17.80
2019-03-27T22:11:07.445Z,18.43
2019-03-27T22:13:35.922Z,21.07
2019-03-27T22:16:04.511Z,20.20
2019-03-27T22:18:32.988Z,18.87
2019-03-27T22:21:01.495Z,20.80
2019-03-27T22:23:29.971Z,20.03
2019-03-27T22:25:58.489Z,17.93
2019-03-27T22:28:26.965Z,19.07
2019-03-27T22:30:55.479Z,18.30
2019-03-27T22:33:23.961Z,18.50
2019-03-27T22:35:52.478Z,19.87
2019-03-27T22:38:20.958Z,19.13
2019-03-27T22:40:49.486Z,19.57
2019-03-27T22:43:17.972Z,19.47
2019-03-27T22:45:46.423Z,19.40
2019-03-27T22:48:14.937Z,19.07
2019-03-27T22:50:43.420Z,18.53
2019-03-27T22:53:11.941Z,20.77
2019-03-27T22:55:49.531Z,19.30
2019-03-27T22:58:13.048Z,18.57
2019-03-27T23:00:48.042Z,18.53
2019-03-27T23:03:18.481Z,18.87
2019-03-27T23:05:46.870Z,17.93
2019-03-27T23:08:15.436Z,18.37
2019-03-27T23:10:43.926Z,19.07
2019-03-27T23:13:12.492Z,19.37
2019-03-27T23:15:41.040Z,18.70
2019-03-27T23:18:09.539Z,18.90
2019-03-27T23:20:38.168Z,18.73
2019-03-27T23:23:06.690Z,18.93
2019-03-27T23:25:35.167Z,19.23
2019-03-27T23:28:03.674Z,18.83
2019-03-27T23:30:32.213Z,18.47
2019-03-27T23:33:00.715Z,19.60
2019-03-27T23:35:29.195Z,19.47
2019-03-27T23:37:57.696Z,18.97
2019-03-27T23:40:26.198Z,19.53
2019-03-27T23:42:54.694Z,17.83
2019-03-27T23:45:23.168Z,18.50
2019-03-27T23:47:51.669Z,17.30
2019-03-27T23:50:20.145Z,17.57
2019-03-27T23:52:48.660Z,18.90
2019-03-27T23:55:17.136Z,18.07
2019-03-27T23:57:45.642Z,18.20
